createdAt,value
2022-12-22T00:01:12.619Z,9.78
2022-12-22T00:03:44.379Z,9.96
2022-12-22T00:06:16.234Z,9.77
2022-12-22T00:08:49.265Z,9.70
2022-12-22T00:11:22.733Z,9.64
2022-12-22T00:13:54.399Z,9.75
2022-12-22T00:16:33.081Z,9.94
2022-12-22T00:19:13.760Z,9.92
2022-12-22T00:21:45.455Z,9.87
2022-12-22T00:24:17.199Z,10.04
2022-12-22T00:26:48.868Z,10.12
2022-12-22T00:29:22.832Z,10.09
2022-12-22T00:31:58.668Z,9.96
2022-12-22T00:34:44.348Z,9.87
2022-12-22T00:37:16.339Z,9.89
2022-12-22T00:39:49.865Z,9.97
2022-12-22T00:42:21.589Z,9.93
2022-12-22T00:44:53.398Z,10.05
2022-12-22T00:47:28.997Z,10.14
2022-12-22T00:50:20.970Z,9.94
2022-12-22T00:52:57.268Z,9.78
2022-12-22T00:55:33.479Z,9.85
2022-12-22T00:58:17.287Z,10.03
2022-12-22T01:00:49.565Z,9.85
2022-12-22T01:03:23.451Z,9.68
2022-12-22T01:05:56.061Z,9.78
2022-12-22T01:08:28.407Z,9.99
2022-12-22T01:11:00.383Z,9.84
2022-12-22T01:13:32.982Z,9.99
2022-12-22T01:16:04.975Z,9.98
2022-12-22T01:18:36.659Z,9.96
2022-12-22T01:21:10.305Z,10.10
2022-12-22T01:23:43.361Z,10.10
2022-12-22T01:26:16.200Z,9.93
2022-12-22T01:28:49.572Z,10.05
2022-12-22T01:31:31.208Z,10.01
2022-12-22T01:36:53.570Z,9.97
2022-12-22T01:39:25.295Z,10.04
2022-12-22T01:41:57.125Z,9.92
2022-12-22T01:44:28.850Z,9.87
2022-12-22T01:47:28.502Z,9.98
2022-12-22T01:50:00.195Z,10.02
2022-12-22T01:52:36.178Z,9.90
2022-12-22T01:55:13.259Z,9.87
2022-12-22T01:57:45.408Z,10.06
2022-12-22T02:00:25.968Z,9.88
2022-12-22T02:02:57.791Z,9.83
2022-12-22T02:05:44.149Z,9.85
2022-12-22T02:08:28.044Z,9.94
2022-12-22T02:11:32.104Z,10.09
2022-12-22T02:14:11.229Z,10.04
2022-12-22T02:16:56.271Z,9.98
2022-12-22T02:19:53.076Z,10.08
2022-12-22T02:22:30.340Z,10.21
2022-12-22T02:25:16.344Z,10.11
2022-12-22T02:27:53.747Z,10.14
2022-12-22T02:30:28.280Z,10.17
2022-12-22T02:33:05.149Z,10.02
2022-12-22T02:35:59.063Z,10.17
2022-12-22T02:38:41.520Z,10.08
2022-12-22T02:41:50.186Z,10.20
2022-12-22T02:44:34.768Z,10.33
2022-12-22T02:47:18.930Z,10.40
2022-12-22T02:50:16.630Z,10.42
2022-12-22T02:52:50.826Z,10.48
2022-12-22T02:55:22.861Z,10.54
2022-12-22T02:57:54.688Z,10.54
2022-12-22T03:00:26.416Z,10.33
2022-12-22T03:02:59.987Z,10.58
2022-12-22T03:05:31.835Z,10.58
2022-12-22T03:08:08.272Z,10.55
2022-12-22T03:10:40.683Z,10.41
2022-12-22T03:13:12.351Z,10.29
2022-12-22T03:15:44.138Z,10.39
2022-12-22T03:18:15.937Z,10.54
2022-12-22T03:20:47.683Z,10.44
2022-12-22T03:23:19.332Z,10.57
2022-12-22T03:25:50.981Z,10.58
2022-12-22T03:28:26.342Z,10.50
2022-12-22T03:31:04.535Z,10.50
2022-12-22T03:33:36.380Z,10.35
2022-12-22T03:36:12.032Z,10.31
2022-12-22T03:38:44.981Z,10.24
2022-12-22T03:41:16.688Z,10.20
2022-12-22T03:43:48.628Z,10.21
2022-12-22T03:46:20.411Z,10.21
2022-12-22T03:48:52.758Z,10.42
2022-12-22T03:51:25.651Z,10.21
2022-12-22T03:53:57.462Z,10.36
2022-12-22T03:56:29.952Z,10.34
2022-12-22T03:59:02.043Z,10.44
2022-12-22T04:01:38.277Z,10.51
2022-12-22T04:04:11.742Z,10.65
2022-12-22T04:06:44.725Z,10.73
2022-12-22T04:09:16.445Z,10.57
2022-12-22T04:11:49.326Z,10.58
2022-12-22T04:14:33.749Z,10.82
2022-12-22T04:17:20.590Z,10.79
2022-12-22T04:19:53.568Z,10.68
2022-12-22T04:22:25.373Z,10.77
2022-12-22T04:24:57.158Z,10.84
2022-12-22T04:27:28.825Z,10.86
2022-12-22T04:30:00.532Z,10.78
2022-12-22T04:32:32.591Z,10.77
2022-12-22T04:35:05.191Z,10.82
2022-12-22T04:37:37.468Z,10.74
2022-12-22T04:40:09.556Z,10.81
2022-12-22T04:42:43.673Z,11.02
2022-12-22T04:45:23.754Z,10.82
2022-12-22T04:47:58.178Z,10.86
2022-12-22T04:50:30.107Z,10.87
2022-12-22T04:53:02.554Z,11.03
2022-12-22T04:55:34.754Z,10.91
2022-12-22T04:58:06.599Z,10.89
2022-12-22T05:00:39.386Z,10.81
2022-12-22T05:03:11.350Z,10.91
2022-12-22T05:05:43.185Z,10.88
2022-12-22T05:08:15.721Z,11.09
2022-12-22T05:10:47.521Z,10.83
2022-12-22T05:13:19.290Z,10.79
2022-12-22T05:15:51.767Z,10.94
2022-12-22T05:18:24.009Z,10.91
2022-12-22T05:20:56.643Z,11.15
2022-12-22T05:23:30.825Z,11.07
2022-12-22T05:26:03.667Z,11.01
2022-12-22T05:31:27.012Z,10.96
2022-12-22T05:33:58.820Z,11.01
2022-12-22T05:36:30.530Z,10.97
2022-12-22T05:39:02.289Z,11.10
2022-12-22T05:41:37.183Z,10.98
2022-12-22T05:44:10.252Z,11.04
2022-12-22T05:46:43.926Z,11.02
2022-12-22T05:49:17.774Z,11.04
2022-12-22T05:51:50.942Z,11.15
2022-12-22T05:54:28.792Z,10.93
2022-12-22T05:57:05.746Z,11.06
2022-12-22T05:59:37.538Z,11.04
2022-12-22T06:02:12.142Z,10.84
2022-12-22T06:04:44.096Z,10.88
2022-12-22T06:07:15.857Z,11.00
2022-12-22T06:09:47.471Z,10.80
2022-12-22T06:12:19.141Z,11.14
2022-12-22T06:14:54.369Z,11.00
2022-12-22T06:17:26.402Z,10.85
2022-12-22T06:19:58.013Z,10.82
2022-12-22T06:22:29.663Z,10.64
2022-12-22T06:25:01.655Z,10.52
2022-12-22T06:27:33.517Z,10.63
2022-12-22T06:30:05.940Z,10.77
2022-12-22T06:32:39.211Z,10.63
2022-12-22T06:35:11.964Z,10.63
2022-12-22T06:37:43.756Z,10.43
2022-12-22T06:40:15.572Z,10.35
2022-12-22T06:42:47.236Z,10.62
2022-12-22T06:45:19.048Z,10.87
2022-12-22T06:47:50.781Z,11.21
2022-12-22T06:50:22.386Z,10.82
2022-12-22T06:52:54.070Z,10.64
2022-12-22T06:55:26.445Z,10.84
2022-12-22T06:57:58.077Z,10.69
2022-12-22T07:00:29.916Z,10.61
2022-12-22T07:03:01.906Z,10.43
2022-12-22T07:05:34.738Z,10.40
2022-12-22T07:08:13.058Z,10.40
2022-12-22T07:10:55.170Z,10.57
2022-12-22T07:13:33.780Z,10.60
2022-12-22T07:16:09.804Z,10.68
2022-12-22T07:18:44.039Z,10.54
2022-12-22T07:21:16.702Z,10.82
2022-12-22T07:23:48.599Z,10.49
2022-12-22T07:26:20.251Z,10.52
2022-12-22T07:28:52.391Z,10.68
2022-12-22T07:31:25.205Z,10.66
2022-12-22T07:33:57.312Z,10.86
2022-12-22T07:36:29.279Z,10.80
2022-12-22T07:39:06.163Z,10.76
2022-12-22T07:41:39.117Z,10.84
2022-12-22T07:44:18.370Z,10.78
2022-12-22T07:46:50.190Z,11.05
2022-12-22T07:49:22.487Z,11.03
2022-12-22T07:51:57.873Z,10.88
2022-12-22T07:54:29.723Z,10.89
2022-12-22T07:57:01.339Z,10.77
2022-12-22T07:59:32.985Z,10.79
2022-12-22T08:04:50.224Z,10.77
2022-12-22T08:07:21.965Z,10.83
2022-12-22T08:09:53.989Z,10.85
2022-12-22T08:12:25.893Z,10.90
2022-12-22T08:14:57.559Z,11.05
2022-12-22T08:17:29.381Z,10.95
2022-12-22T08:20:01.112Z,10.94
2022-12-22T08:22:32.780Z,10.82
2022-12-22T08:25:05.970Z,10.88
2022-12-22T08:27:48.455Z,10.81
2022-12-22T08:30:20.407Z,10.68
2022-12-22T08:32:52.209Z,10.67
2022-12-22T08:35:24.020Z,10.76
2022-12-22T08:37:56.052Z,11.32
2022-12-22T08:40:32.974Z,11.26
2022-12-22T08:43:09.532Z,10.87
2022-12-22T08:45:42.679Z,10.96
2022-12-22T08:48:14.494Z,10.94
2022-12-22T08:50:46.252Z,10.95
2022-12-22T08:53:45.263Z,11.26
2022-12-22T08:56:09.607Z,11.18
2022-12-22T08:58:41.212Z,11.50
2022-12-22T09:01:22.005Z,11.72
2022-12-22T09:03:54.536Z,11.55
2022-12-22T09:06:27.590Z,11.55
2022-12-22T09:09:03.974Z,11.58
2022-12-22T09:11:35.933Z,11.55
2022-12-22T09:14:09.850Z,11.48
2022-12-22T09:16:41.873Z,11.33
2022-12-22T09:19:13.668Z,11.14
2022-12-22T09:21:45.352Z,10.95
2022-12-22T09:24:18.664Z,11.14
2022-12-22T09:26:50.332Z,11.25
2022-12-22T09:29:22.030Z,11.41
2022-12-22T09:31:53.676Z,11.62
2022-12-22T09:34:25.280Z,11.73
2022-12-22T09:36:56.904Z,11.90
2022-12-22T09:39:29.397Z,12.33
2022-12-22T09:42:01.514Z,12.86
2022-12-22T09:44:37.934Z,12.23
2022-12-22T09:47:18.282Z,11.46
2022-12-22T09:49:52.318Z,11.35
2022-12-22T09:52:33.538Z,11.73
2022-12-22T09:55:33.703Z,11.59
2022-12-22T09:58:16.620Z,11.76
2022-12-22T10:01:03.481Z,11.39
2022-12-22T10:04:02.860Z,11.56
2022-12-22T10:06:46.328Z,11.95
2022-12-22T10:09:49.461Z,11.94
2022-12-22T10:12:24.987Z,11.79
2022-12-22T10:14:56.628Z,11.59
2022-12-22T10:17:33.847Z,11.45
2022-12-22T10:20:14.676Z,11.30
2022-12-22T10:23:01.748Z,11.18
2022-12-22T10:26:17.017Z,11.04
2022-12-22T10:28:36.608Z,11.16
2022-12-22T10:31:23.705Z,11.22
2022-12-22T10:34:09.381Z,11.45
2022-12-22T10:36:50.924Z,11.40
2022-12-22T10:39:30.525Z,11.12
2022-12-22T10:42:11.117Z,11.05
2022-12-22T10:44:48.916Z,11.20
2022-12-22T10:47:23.823Z,11.50
2022-12-22T10:52:32.134Z,11.78
2022-12-22T10:55:24.406Z,11.44
2022-12-22T10:58:17.368Z,11.83
2022-12-22T11:01:02.758Z,11.76
2022-12-22T11:03:34.538Z,11.71
2022-12-22T11:06:12.849Z,11.58
2022-12-22T11:08:50.979Z,11.57
2022-12-22T11:11:37.857Z,11.54
2022-12-22T11:14:16.498Z,11.53
2022-12-22T11:16:56.567Z,11.85
2022-12-22T11:19:50.432Z,11.84
2022-12-22T11:22:33.859Z,11.83
2022-12-22T11:25:17.386Z,11.89
2022-12-22T11:28:14.363Z,12.12
2022-12-22T11:31:18.051Z,12.44
2022-12-22T11:34:47.106Z,11.96
2022-12-22T11:37:40.426Z,12.05
2022-12-22T11:40:38.166Z,12.19
2022-12-22T11:43:51.215Z,12.16
2022-12-22T11:46:25.450Z,12.33
2022-12-22T11:49:08.998Z,12.26
2022-12-22T11:51:52.288Z,12.55
2022-12-22T11:54:54.967Z,12.75
2022-12-22T11:58:01.134Z,12.81
2022-12-22T12:01:13.655Z,13.18
2022-12-22T12:04:04.415Z,12.79
2022-12-22T12:07:08.836Z,13.04
2022-12-22T12:09:55.647Z,12.83
2022-12-22T12:13:00.704Z,12.96
2022-12-22T12:15:40.266Z,12.86
2022-12-22T12:19:01.773Z,12.63
2022-12-22T12:21:49.918Z,12.51
2022-12-22T12:24:46.258Z,12.46
2022-12-22T12:27:53.235Z,12.32
2022-12-22T12:30:40.662Z,12.04
2022-12-22T12:33:17.646Z,12.03
2022-12-22T12:35:49.224Z,11.84
2022-12-22T12:42:01.656Z,12.15
2022-12-22T12:44:37.168Z,11.95
2022-12-22T12:47:08.759Z,12.14
2022-12-22T12:50:06.279Z,11.92
2022-12-22T12:52:40.609Z,11.64
2022-12-22T12:55:32.673Z,11.71
2022-12-22T12:58:10.716Z,11.46
2022-12-22T13:00:48.764Z,11.48
2022-12-22T13:03:53.296Z,11.75
2022-12-22T13:06:49.241Z,11.52
2022-12-22T13:12:49.817Z,11.91
2022-12-22T13:15:29.151Z,11.75
2022-12-22T13:18:04.076Z,11.75
2022-12-22T13:20:37.475Z,11.88
2022-12-22T13:23:15.160Z,11.77
2022-12-22T13:25:56.701Z,11.84
2022-12-22T13:28:30.087Z,11.69
2022-12-22T13:31:13.763Z,11.85
2022-12-22T13:33:49.124Z,11.99
2022-12-22T13:36:27.928Z,11.83
2022-12-22T13:39:05.924Z,11.77
2022-12-22T13:41:42.500Z,11.84
2022-12-22T13:44:29.546Z,11.78
2022-12-22T13:47:14.763Z,11.90
2022-12-22T13:50:07.773Z,11.84
2022-12-22T13:52:40.572Z,11.94
2022-12-22T13:55:28.841Z,12.05
2022-12-22T13:58:19.499Z,11.99
2022-12-22T14:01:13.811Z,12.13
2022-12-22T14:04:00.696Z,12.13
2022-12-22T14:06:37.286Z,12.08
2022-12-22T14:09:12.509Z,12.06
2022-12-22T14:12:02.144Z,12.21
2022-12-22T14:14:41.405Z,12.26
2022-12-22T14:17:30.543Z,12.35
2022-12-22T14:20:15.858Z,12.44
2022-12-22T14:22:55.699Z,12.50
2022-12-22T14:25:33.544Z,12.07
2022-12-22T14:28:15.451Z,12.03
2022-12-22T14:30:53.543Z,11.95
2022-12-22T14:33:25.216Z,11.94
2022-12-22T14:36:22.394Z,11.83
2022-12-22T14:39:07.137Z,11.80
2022-12-22T14:41:49.962Z,12.01
2022-12-22T14:44:21.646Z,11.92
2022-12-22T14:47:14.965Z,11.75
2022-12-22T14:49:51.603Z,12.06
2022-12-22T14:52:29.220Z,11.76
2022-12-22T14:55:18.251Z,11.95
2022-12-22T14:57:59.344Z,11.70
2022-12-22T15:00:37.356Z,11.63
2022-12-22T15:03:33.022Z,12.02
2022-12-22T15:06:49.205Z,11.57
2022-12-22T15:10:03.573Z,11.59
2022-12-22T15:12:18.462Z,11.80
2022-12-22T15:14:50.330Z,11.81
2022-12-22T15:17:24.380Z,11.80
2022-12-22T15:19:58.948Z,11.80
2022-12-22T15:22:30.592Z,11.66
2022-12-22T15:25:02.327Z,11.70
2022-12-22T15:27:34.052Z,11.98
2022-12-22T15:30:06.440Z,11.60
2022-12-22T15:32:38.675Z,11.78
2022-12-22T15:35:18.298Z,11.85
2022-12-22T15:37:50.340Z,11.89
2022-12-22T15:40:24.938Z,11.94
2022-12-22T15:42:56.722Z,11.86
2022-12-22T15:45:29.776Z,11.92
2022-12-22T15:48:03.216Z,11.86
2022-12-22T15:50:42.408Z,11.89
2022-12-22T15:53:18.781Z,12.00
2022-12-22T15:55:54.018Z,12.03
2022-12-22T15:58:31.458Z,12.04
2022-12-22T16:01:03.280Z,12.01
2022-12-22T16:03:35.139Z,12.10
2022-12-22T16:06:13.896Z,11.99
2022-12-22T16:08:52.070Z,12.04
2022-12-22T16:11:23.949Z,12.06
2022-12-22T16:13:55.859Z,11.92
2022-12-22T16:16:27.776Z,11.99
2022-12-22T16:18:59.436Z,12.15
2022-12-22T16:21:32.933Z,12.22
2022-12-22T16:24:06.909Z,12.23
2022-12-22T16:26:39.611Z,12.09
2022-12-22T16:29:17.041Z,12.18
2022-12-22T16:31:48.730Z,12.21
2022-12-22T16:34:20.305Z,11.97
2022-12-22T16:36:52.009Z,11.98
2022-12-22T16:39:23.602Z,11.94
2022-12-22T16:41:59.587Z,11.98
2022-12-22T16:44:32.019Z,12.12
2022-12-22T16:47:05.621Z,12.13
2022-12-22T16:49:38.559Z,12.26
2022-12-22T16:52:21.393Z,11.98
2022-12-22T16:54:53.146Z,12.13
2022-12-22T16:57:24.743Z,12.05
2022-12-22T16:59:56.301Z,12.05
2022-12-22T17:02:34.219Z,12.13
2022-12-22T17:05:26.583Z,11.81
2022-12-22T17:08:00.434Z,11.73
2022-12-22T17:10:33.959Z,11.63
2022-12-22T17:13:05.601Z,11.57
2022-12-22T17:15:37.374Z,11.62
2022-12-22T17:18:21.175Z,11.60
2022-12-22T17:20:57.035Z,11.51
2022-12-22T17:23:33.728Z,11.33
2022-12-22T17:26:13.510Z,11.40
2022-12-22T17:28:47.112Z,11.43
2022-12-22T17:31:21.950Z,11.32
2022-12-22T17:33:53.724Z,11.35
2022-12-22T17:36:35.798Z,11.37
2022-12-22T17:39:22.659Z,11.49
2022-12-22T17:41:57.136Z,11.31
2022-12-22T17:44:29.292Z,11.34
2022-12-22T17:47:00.989Z,11.19
2022-12-22T17:49:35.151Z,11.23
2022-12-22T17:52:18.215Z,11.38
2022-12-22T17:54:52.733Z,11.24
2022-12-22T17:57:29.252Z,11.19
2022-12-22T18:00:01.098Z,11.01
2022-12-22T18:02:32.802Z,11.24
2022-12-22T18:05:04.839Z,11.08
2022-12-22T18:07:43.351Z,11.20
2022-12-22T18:10:23.824Z,10.94
2022-12-22T18:12:58.864Z,10.71
2022-12-22T18:15:31.059Z,10.83
2022-12-22T18:18:02.728Z,10.88
2022-12-22T18:20:34.348Z,10.60
2022-12-22T18:23:20.566Z,10.57
2022-12-22T18:25:52.331Z,10.58
2022-12-22T18:28:24.060Z,10.48
2022-12-22T18:30:55.650Z,10.49
2022-12-22T18:33:27.236Z,10.44
2022-12-22T18:35:59.270Z,10.50
2022-12-22T18:38:34.124Z,10.55
2022-12-22T18:41:06.054Z,10.47
2022-12-22T18:43:37.636Z,10.49
2022-12-22T18:46:10.884Z,10.53
2022-12-22T18:48:42.491Z,10.33
2022-12-22T18:51:32.454Z,10.50
2022-12-22T18:54:04.097Z,10.56
2022-12-22T18:56:35.671Z,10.49
2022-12-22T18:59:26.316Z,10.37
2022-12-22T19:02:28.657Z,10.21
2022-12-22T19:05:00.316Z,10.28
2022-12-22T19:07:31.946Z,10.20
2022-12-22T19:10:03.770Z,9.93
2022-12-22T19:12:35.468Z,9.97
2022-12-22T19:15:19.524Z,10.10
2022-12-22T19:17:52.001Z,9.81
2022-12-22T19:20:25.329Z,9.92
2022-12-22T19:22:57.080Z,9.82
2022-12-22T19:25:31.448Z,9.88
2022-12-22T19:28:07.998Z,9.81
2022-12-22T19:30:39.722Z,9.69
2022-12-22T19:33:38.160Z,9.84
2022-12-22T19:36:23.479Z,9.92
2022-12-22T19:39:03.489Z,10.00
2022-12-22T19:41:41.331Z,9.84
2022-12-22T19:44:21.915Z,9.84
2022-12-22T19:46:56.522Z,9.83
2022-12-22T19:49:28.841Z,9.75
2022-12-22T19:52:00.393Z,9.64
2022-12-22T19:54:31.933Z,9.74
2022-12-22T19:57:08.449Z,9.69
2022-12-22T19:59:44.341Z,9.89
2022-12-22T20:02:22.297Z,9.83
2022-12-22T20:04:55.653Z,9.97
2022-12-22T20:07:29.896Z,9.94
2022-12-22T20:10:01.667Z,9.82
2022-12-22T20:12:36.324Z,9.96
2022-12-22T20:15:17.178Z,10.11
2022-12-22T20:17:51.842Z,10.34
2022-12-22T20:20:33.620Z,9.93
2022-12-22T20:23:16.002Z,9.91
2022-12-22T20:25:52.986Z,9.92
2022-12-22T20:28:29.861Z,9.97
2022-12-22T20:31:02.194Z,9.84
2022-12-22T20:33:35.014Z,9.87
2022-12-22T20:36:15.988Z,9.82
2022-12-22T20:38:48.777Z,9.90
2022-12-22T20:41:21.489Z,9.76
2022-12-22T20:43:53.472Z,9.63
2022-12-22T20:46:28.552Z,9.67
2022-12-22T20:49:04.749Z,9.62
2022-12-22T20:51:36.401Z,9.69
2022-12-22T20:54:13.745Z,9.84
2022-12-22T20:56:45.382Z,9.79
2022-12-22T20:59:21.985Z,9.93
2022-12-22T21:01:53.906Z,9.99
2022-12-22T21:04:25.792Z,9.77
2022-12-22T21:06:57.487Z,9.80
2022-12-22T21:09:29.426Z,9.86
2022-12-22T21:12:01.100Z,9.53
2022-12-22T21:14:33.519Z,9.53
2022-12-22T21:17:07.355Z,9.59
2022-12-22T21:19:39.579Z,9.64
2022-12-22T21:22:11.629Z,9.70
2022-12-22T21:24:43.301Z,9.87
2022-12-22T21:27:19.468Z,9.95
2022-12-22T21:29:51.158Z,9.72
2022-12-22T21:32:22.851Z,9.75
2022-12-22T21:34:54.621Z,9.65
2022-12-22T21:37:26.475Z,9.75
2022-12-22T21:39:58.108Z,9.74
2022-12-22T21:42:29.722Z,9.85
2022-12-22T21:45:01.373Z,9.97
2022-12-22T21:47:32.985Z,9.63
2022-12-22T21:50:05.283Z,9.73
2022-12-22T21:52:36.834Z,9.71
2022-12-22T21:55:08.796Z,9.81
2022-12-22T21:57:40.561Z,9.93
2022-12-22T22:00:14.906Z,9.99
2022-12-22T22:02:47.577Z,9.93
2022-12-22T22:05:39.293Z,10.01
2022-12-22T22:08:12.340Z,9.80
2022-12-22T22:10:44.032Z,9.75
2022-12-22T22:13:15.731Z,9.79
2022-12-22T22:15:47.361Z,9.80
2022-12-22T22:18:20.430Z,9.75
2022-12-22T22:20:52.007Z,9.56
2022-12-22T22:23:23.643Z,9.74
2022-12-22T22:25:59.336Z,9.76
2022-12-22T22:28:35.008Z,9.93
2022-12-22T22:31:22.519Z,9.93
2022-12-22T22:33:54.285Z,9.77
2022-12-22T22:36:25.928Z,9.85
2022-12-22T22:38:57.559Z,9.79
2022-12-22T22:41:29.340Z,9.73
2022-12-22T22:44:01.461Z,9.85
2022-12-22T22:46:33.087Z,9.73
2022-12-22T22:49:04.777Z,9.76
2022-12-22T22:51:36.513Z,9.57
2022-12-22T22:54:10.091Z,9.72
2022-12-22T22:56:41.690Z,9.75
2022-12-22T22:59:13.557Z,9.72
2022-12-22T23:01:45.242Z,9.77
2022-12-22T23:04:17.000Z,9.69
2022-12-22T23:06:48.628Z,9.92
2022-12-22T23:09:20.279Z,9.90
2022-12-22T23:11:52.649Z,9.75
2022-12-22T23:14:24.964Z,9.91
2022-12-22T23:16:56.694Z,9.81
2022-12-22T23:19:28.429Z,9.81
2022-12-22T23:22:00.034Z,9.96
2022-12-22T23:24:31.749Z,10.06
2022-12-22T23:27:03.503Z,10.01
2022-12-22T23:29:36.601Z,10.16
2022-12-22T23:32:08.256Z,9.98
2022-12-22T23:34:39.837Z,9.88
2022-12-22T23:37:18.785Z,9.99
2022-12-22T23:39:51.124Z,10.06
2022-12-22T23:42:22.689Z,10.05
2022-12-22T23:44:54.268Z,10.00
2022-12-22T23:47:25.871Z,10.04
2022-12-22T23:49:57.454Z,10.03
2022-12-22T23:52:29.032Z,10.08
2022-12-22T23:55:00.583Z,10.13
2022-12-22T23:57:32.127Z,10.05
